sensor_id;sensor_type;location;lat;lon;timestamp;pressure;altitude;pressure_sealevel;temperature;humidity
74881;BME280;63427;49.654;6.596;2022-12-29T00:01:50;98928.23;;;11.90;48.54
74881;BME280;63427;49.654;6.596;2022-12-29T00:04:15;98929.79;;;12.08;47.76
74881;BME280;63427;49.654;6.596;2022-12-29T00:06:42;98930.68;;;12.04;48.11
74881;BME280;63427;49.654;6.596;2022-12-29T00:09:07;98925.03;;;12.00;47.71
74881;BME280;63427;49.654;6.596;2022-12-29T00:11:32;98932.50;;;11.08;49.62
74881;BME280;63427;49.654;6.596;2022-12-29T00:13:58;98929.71;;;11.65;49.01
74881;BME280;63427;49.654;6.596;2022-12-29T00:16:23;98929.42;;;11.51;50.23
74881;BME280;63427;49.654;6.596;2022-12-29T00:18:49;98925.12;;;11.32;50.53
74881;BME280;63427;49.654;6.596;2022-12-29T00:21:15;98924.11;;;11.38;50.64
74881;BME280;63427;49.654;6.596;2022-12-29T00:23:39;98929.88;;;11.48;50.26
74881;BME280;63427;49.654;6.596;2022-12-29T00:26:12;98926.21;;;11.83;49.64
74881;BME280;63427;49.654;6.596;2022-12-29T00:28:30;98932.50;;;11.85;50.25
74881;BME280;63427;49.654;6.596;2022-12-29T00:30:59;98928.64;;;11.68;50.45
74881;BME280;63427;49.654;6.596;2022-12-29T00:33:26;98938.02;;;11.79;50.60
74881;BME280;63427;49.654;6.596;2022-12-29T00:35:52;98938.55;;;11.96;49.65
74881;BME280;63427;49.654;6.596;2022-12-29T00:38:13;98923.46;;;11.71;50.19
74881;BME280;63427;49.654;6.596;2022-12-29T00:40:38;98916.92;;;10.88;51.97
74881;BME280;63427;49.654;6.596;2022-12-29T00:43:03;98914.56;;;11.81;50.17
74881;BME280;63427;49.654;6.596;2022-12-29T00:45:29;98929.42;;;10.59;53.34
74881;BME280;63427;49.654;6.596;2022-12-29T00:47:54;98930.61;;;11.39;51.28
74881;BME280;63427;49.654;6.596;2022-12-29T00:50:20;98921.26;;;11.65;51.40
74881;BME280;63427;49.654;6.596;2022-12-29T00:52:45;98917.20;;;11.49;51.26
74881;BME280;63427;49.654;6.596;2022-12-29T00:55:11;98917.99;;;11.34;50.60
74881;BME280;63427;49.654;6.596;2022-12-29T00:57:36;98900.73;;;11.59;50.67
74881;BME280;63427;49.654;6.596;2022-12-29T01:00:02;98903.90;;;11.33;50.51
74881;BME280;63427;49.654;6.596;2022-12-29T01:02:28;98899.29;;;11.83;49.72
74881;BME280;63427;49.654;6.596;2022-12-29T01:04:53;98899.11;;;11.99;48.85
74881;BME280;63427;49.654;6.596;2022-12-29T01:07:18;98887.23;;;11.92;49.13
74881;BME280;63427;49.654;6.596;2022-12-29T01:09:44;98878.87;;;11.79;49.54
74881;BME280;63427;49.654;6.596;2022-12-29T01:12:10;98891.62;;;11.06;51.34
74881;BME280;63427;49.654;6.596;2022-12-29T01:14:35;98887.80;;;11.66;50.24
74881;BME280;63427;49.654;6.596;2022-12-29T01:17:00;98875.35;;;11.73;50.22
74881;BME280;63427;49.654;6.596;2022-12-29T01:19:26;98876.63;;;10.77;51.87
74881;BME280;63427;49.654;6.596;2022-12-29T01:21:51;98862.85;;;10.93;52.16
74881;BME280;63427;49.654;6.596;2022-12-29T01:24:18;98874.47;;;11.11;51.94
74881;BME280;63427;49.654;6.596;2022-12-29T01:26:42;98866.43;;;10.59;52.80
74881;BME280;63427;49.654;6.596;2022-12-29T01:29:08;98872.43;;;11.06;52.38
74881;BME280;63427;49.654;6.596;2022-12-29T01:31:33;98872.06;;;11.17;51.96
74881;BME280;63427;49.654;6.596;2022-12-29T01:33:59;98876.30;;;10.07;54.44
74881;BME280;63427;49.654;6.596;2022-12-29T01:36:24;98866.45;;;11.46;51.79
74881;BME280;63427;49.654;6.596;2022-12-29T01:38:50;98865.32;;;11.36;51.95
74881;BME280;63427;49.654;6.596;2022-12-29T01:41:16;98857.25;;;11.18;52.26
74881;BME280;63427;49.654;6.596;2022-12-29T01:43:43;98871.54;;;11.50;51.41
74881;BME280;63427;49.654;6.596;2022-12-29T01:46:14;98881.77;;;10.87;52.89
74881;BME280;63427;49.654;6.596;2022-12-29T01:48:32;98869.86;;;10.76;53.27
74881;BME280;63427;49.654;6.596;2022-12-29T01:50:57;98866.33;;;10.77;52.96
74881;BME280;63427;49.654;6.596;2022-12-29T01:53:27;98873.26;;;10.34;54.38
74881;BME280;63427;49.654;6.596;2022-12-29T01:55:51;98881.70;;;10.60;53.96
74881;BME280;63427;49.654;6.596;2022-12-29T01:58:15;98864.03;;;10.61;53.69
74881;BME280;63427;49.654;6.596;2022-12-29T02:00:40;98867.67;;;11.02;52.86
74881;BME280;63427;49.654;6.596;2022-12-29T02:03:06;98859.37;;;10.04;55.69
74881;BME280;63427;49.654;6.596;2022-12-29T02:05:35;98860.57;;;10.50;53.79
74881;BME280;63427;49.654;6.596;2022-12-29T02:07:56;98850.21;;;10.40;53.90
74881;BME280;63427;49.654;6.596;2022-12-29T02:10:24;98830.83;;;11.28;52.06
74881;BME280;63427;49.654;6.596;2022-12-29T02:12:47;98833.09;;;11.63;50.86
74881;BME280;63427;49.654;6.596;2022-12-29T02:15:14;98833.80;;;10.36;53.31
74881;BME280;63427;49.654;6.596;2022-12-29T02:17:50;98816.76;;;10.87;52.56
74881;BME280;63427;49.654;6.596;2022-12-29T02:22:35;98816.56;;;10.33;52.22
74881;BME280;63427;49.654;6.596;2022-12-29T02:25:09;98828.08;;;10.65;52.95
74881;BME280;63427;49.654;6.596;2022-12-29T02:27:37;98819.30;;;10.66;53.32
74881;BME280;63427;49.654;6.596;2022-12-29T02:32:17;98824.92;;;10.42;52.93
74881;BME280;63427;49.654;6.596;2022-12-29T02:34:45;98807.70;;;10.39;54.05
74881;BME280;63427;49.654;6.596;2022-12-29T02:37:06;98806.54;;;10.88;51.72
74881;BME280;63427;49.654;6.596;2022-12-29T02:39:34;98796.37;;;11.14;50.83
74881;BME280;63427;49.654;6.596;2022-12-29T02:42:02;98796.77;;;10.52;53.11
74881;BME280;63427;49.654;6.596;2022-12-29T02:44:25;98785.62;;;10.93;51.55
74881;BME280;63427;49.654;6.596;2022-12-29T02:46:48;98790.84;;;10.93;51.04
74881;BME280;63427;49.654;6.596;2022-12-29T02:49:12;98790.76;;;11.36;49.57
74881;BME280;63427;49.654;6.596;2022-12-29T02:51:39;98783.26;;;11.31;49.90
74881;BME280;63427;49.654;6.596;2022-12-29T02:54:01;98773.48;;;11.63;48.71
74881;BME280;63427;49.654;6.596;2022-12-29T02:56:26;98775.09;;;11.86;47.97
74881;BME280;63427;49.654;6.596;2022-12-29T02:58:51;98773.58;;;11.90;48.33
74881;BME280;63427;49.654;6.596;2022-12-29T03:01:24;98775.23;;;11.94;47.70
74881;BME280;63427;49.654;6.596;2022-12-29T03:03:55;98774.34;;;11.95;48.05
74881;BME280;63427;49.654;6.596;2022-12-29T03:06:19;98774.20;;;11.65;47.92
74881;BME280;63427;49.654;6.596;2022-12-29T03:08:39;98778.28;;;11.36;49.08
74881;BME280;63427;49.654;6.596;2022-12-29T03:11:02;98766.55;;;11.43;49.12
74881;BME280;63427;49.654;6.596;2022-12-29T03:13:28;98763.29;;;11.54;48.74
74881;BME280;63427;49.654;6.596;2022-12-29T03:15:55;98755.46;;;11.98;47.50
74881;BME280;63427;49.654;6.596;2022-12-29T03:18:21;98755.29;;;11.86;47.64
74881;BME280;63427;49.654;6.596;2022-12-29T03:20:46;98759.17;;;11.91;47.60
74881;BME280;63427;49.654;6.596;2022-12-29T03:23:07;98765.00;;;11.83;46.81
74881;BME280;63427;49.654;6.596;2022-12-29T03:25:35;98752.03;;;11.84;47.48
74881;BME280;63427;49.654;6.596;2022-12-29T03:28:02;98760.46;;;11.90;46.64
74881;BME280;63427;49.654;6.596;2022-12-29T03:30:23;98751.48;;;11.59;47.24
74881;BME280;63427;49.654;6.596;2022-12-29T03:32:51;98769.98;;;11.91;47.28
74881;BME280;63427;49.654;6.596;2022-12-29T03:35:17;98766.11;;;11.52;46.89
74881;BME280;63427;49.654;6.596;2022-12-29T03:37:42;98765.85;;;11.58;46.87
74881;BME280;63427;49.654;6.596;2022-12-29T03:40:06;98763.34;;;11.19;48.67
74881;BME280;63427;49.654;6.596;2022-12-29T03:42:33;98752.09;;;11.68;47.08
74881;BME280;63427;49.654;6.596;2022-12-29T03:44:56;98754.39;;;12.05;46.05
74881;BME280;63427;49.654;6.596;2022-12-29T03:47:22;98756.40;;;11.95;46.10
74881;BME280;63427;49.654;6.596;2022-12-29T03:49:47;98753.40;;;11.77;47.40
74881;BME280;63427;49.654;6.596;2022-12-29T03:52:12;98756.03;;;11.37;48.70
74881;BME280;63427;49.654;6.596;2022-12-29T03:54:38;98759.85;;;11.07;49.44
74881;BME280;63427;49.654;6.596;2022-12-29T03:57:03;98754.77;;;11.55;49.02
74881;BME280;63427;49.654;6.596;2022-12-29T03:59:29;98750.37;;;11.37;48.58
74881;BME280;63427;49.654;6.596;2022-12-29T04:01:54;98754.79;;;11.63;48.46
74881;BME280;63427;49.654;6.596;2022-12-29T04:04:20;98754.55;;;11.43;47.95
74881;BME280;63427;49.654;6.596;2022-12-29T04:06:46;98761.38;;;12.06;47.24
74881;BME280;63427;49.654;6.596;2022-12-29T04:09:11;98746.96;;;11.72;48.00
74881;BME280;63427;49.654;6.596;2022-12-29T04:11:36;98757.89;;;11.88;47.72
74881;BME280;63427;49.654;6.596;2022-12-29T04:14:02;98757.93;;;11.86;47.81
74881;BME280;63427;49.654;6.596;2022-12-29T04:16:27;98766.44;;;12.04;47.64
74881;BME280;63427;49.654;6.596;2022-12-29T04:18:53;98766.65;;;11.74;47.82
74881;BME280;63427;49.654;6.596;2022-12-29T04:21:19;98756.42;;;11.87;47.17
74881;BME280;63427;49.654;6.596;2022-12-29T04:23:44;98774.77;;;11.89;47.53
74881;BME280;63427;49.654;6.596;2022-12-29T04:26:10;98759.16;;;11.47;48.21
74881;BME280;63427;49.654;6.596;2022-12-29T04:28:35;98752.63;;;11.35;48.25
74881;BME280;63427;49.654;6.596;2022-12-29T04:31:01;98753.47;;;11.82;47.34
74881;BME280;63427;49.654;6.596;2022-12-29T04:33:26;98747.71;;;11.04;49.03
74881;BME280;63427;49.654;6.596;2022-12-29T04:35:52;98759.79;;;11.44;48.85
74881;BME280;63427;49.654;6.596;2022-12-29T04:38:17;98765.20;;;11.18;49.54
74881;BME280;63427;49.654;6.596;2022-12-29T04:40:43;98740.75;;;10.61;50.26
74881;BME280;63427;49.654;6.596;2022-12-29T04:43:09;98736.66;;;11.01;50.06
74881;BME280;63427;49.654;6.596;2022-12-29T04:45:33;98743.28;;;10.82;49.54
74881;BME280;63427;49.654;6.596;2022-12-29T04:47:59;98736.76;;;10.78;49.83
74881;BME280;63427;49.654;6.596;2022-12-29T04:50:24;98738.67;;;10.98;49.14
74881;BME280;63427;49.654;6.596;2022-12-29T04:52:50;98730.68;;;11.36;48.24
74881;BME280;63427;49.654;6.596;2022-12-29T04:55:15;98739.26;;;11.10;48.99
74881;BME280;63427;49.654;6.596;2022-12-29T04:57:41;98726.05;;;11.10;48.14
74881;BME280;63427;49.654;6.596;2022-12-29T05:00:08;98730.95;;;10.47;49.97
74881;BME280;63427;49.654;6.596;2022-12-29T05:02:32;98730.11;;;10.90;48.46
74881;BME280;63427;49.654;6.596;2022-12-29T05:04:57;98723.25;;;10.58;49.74
74881;BME280;63427;49.654;6.596;2022-12-29T05:07:23;98729.96;;;11.59;48.24
74881;BME280;63427;49.654;6.596;2022-12-29T05:09:48;98737.56;;;11.24;48.71
74881;BME280;63427;49.654;6.596;2022-12-29T05:12:14;98727.62;;;11.82;47.48
74881;BME280;63427;49.654;6.596;2022-12-29T05:14:39;98704.78;;;11.71;47.77
74881;BME280;63427;49.654;6.596;2022-12-29T05:17:04;98717.88;;;10.94;48.99
74881;BME280;63427;49.654;6.596;2022-12-29T05:19:30;98734.83;;;10.49;52.39
74881;BME280;63427;49.654;6.596;2022-12-29T05:21:56;98739.28;;;10.63;51.84
74881;BME280;63427;49.654;6.596;2022-12-29T05:24:21;98739.11;;;10.79;51.73
74881;BME280;63427;49.654;6.596;2022-12-29T05:26:46;98728.90;;;10.81;52.54
74881;BME280;63427;49.654;6.596;2022-12-29T05:29:12;98743.21;;;11.00;51.67
74881;BME280;63427;49.654;6.596;2022-12-29T05:31:38;98728.76;;;11.30;51.27
74881;BME280;63427;49.654;6.596;2022-12-29T05:34:03;98736.90;;;11.08;51.21
74881;BME280;63427;49.654;6.596;2022-12-29T05:36:29;98732.89;;;9.89;54.33
74881;BME280;63427;49.654;6.596;2022-12-29T05:38:54;98739.25;;;10.80;52.75
74881;BME280;63427;49.654;6.596;2022-12-29T05:41:19;98744.19;;;10.19;54.38
74881;BME280;63427;49.654;6.596;2022-12-29T05:43:45;98739.61;;;10.35;53.71
74881;BME280;63427;49.654;6.596;2022-12-29T05:46:11;98738.38;;;10.91;51.84
74881;BME280;63427;49.654;6.596;2022-12-29T05:48:36;98737.45;;;11.09;51.38
74881;BME280;63427;49.654;6.596;2022-12-29T05:51:02;98735.15;;;11.12;50.25
74881;BME280;63427;49.654;6.596;2022-12-29T05:53:27;98732.73;;;11.62;49.82
74881;BME280;63427;49.654;6.596;2022-12-29T05:55:53;98721.25;;;10.98;50.10
74881;BME280;63427;49.654;6.596;2022-12-29T05:58:18;98744.49;;;11.00;49.86
74881;BME280;63427;49.654;6.596;2022-12-29T06:00:44;98743.72;;;11.32;50.47
74881;BME280;63427;49.654;6.596;2022-12-29T06:03:09;98754.70;;;11.30;50.24
74881;BME280;63427;49.654;6.596;2022-12-29T06:05:35;98728.10;;;11.10;50.14
74881;BME280;63427;49.654;6.596;2022-12-29T06:08:00;98737.06;;;11.12;49.41
74881;BME280;63427;49.654;6.596;2022-12-29T06:10:26;98731.58;;;11.37;49.21
74881;BME280;63427;49.654;6.596;2022-12-29T06:12:51;98744.62;;;10.96;50.27
74881;BME280;63427;49.654;6.596;2022-12-29T06:15:17;98738.33;;;10.86;50.38
74881;BME280;63427;49.654;6.596;2022-12-29T06:17:42;98743.15;;;10.73;50.32
74881;BME280;63427;49.654;6.596;2022-12-29T06:20:10;98751.41;;;11.02;50.06
74881;BME280;63427;49.654;6.596;2022-12-29T06:22:33;98742.26;;;10.88;50.61
74881;BME280;63427;49.654;6.596;2022-12-29T06:24:59;98745.15;;;10.73;50.92
74881;BME280;63427;49.654;6.596;2022-12-29T06:27:24;98758.61;;;10.76;51.53
74881;BME280;63427;49.654;6.596;2022-12-29T06:29:50;98765.24;;;10.04;53.07
74881;BME280;63427;49.654;6.596;2022-12-29T06:32:15;98774.08;;;10.05;53.68
74881;BME280;63427;49.654;6.596;2022-12-29T06:34:41;98775.62;;;10.38;52.77
74881;BME280;63427;49.654;6.596;2022-12-29T06:37:07;98773.29;;;10.51;51.92
74881;BME280;63427;49.654;6.596;2022-12-29T06:39:32;98769.92;;;11.15;50.33
74881;BME280;63427;49.654;6.596;2022-12-29T06:41:57;98764.82;;;11.04;50.40
74881;BME280;63427;49.654;6.596;2022-12-29T06:44:24;98770.68;;;10.86;51.49
74881;BME280;63427;49.654;6.596;2022-12-29T06:46:49;98783.02;;;10.87;50.85
74881;BME280;63427;49.654;6.596;2022-12-29T06:49:14;98794.39;;;10.57;51.16
74881;BME280;63427;49.654;6.596;2022-12-29T06:51:40;98800.06;;;10.96;50.43
74881;BME280;63427;49.654;6.596;2022-12-29T06:54:05;98802.89;;;10.19;52.56
74881;BME280;63427;49.654;6.596;2022-12-29T06:56:30;98800.80;;;10.66;51.26
74881;BME280;63427;49.654;6.596;2022-12-29T06:58:56;98793.33;;;10.75;52.09
74881;BME280;63427;49.654;6.596;2022-12-29T07:01:22;98798.30;;;11.14;51.55
74881;BME280;63427;49.654;6.596;2022-12-29T07:03:47;98795.38;;;10.62;51.53
74881;BME280;63427;49.654;6.596;2022-12-29T07:06:13;98790.75;;;11.04;50.67
74881;BME280;63427;49.654;6.596;2022-12-29T07:08:38;98792.07;;;10.30;52.34
74881;BME280;63427;49.654;6.596;2022-12-29T07:11:04;98795.22;;;11.50;49.98
74881;BME280;63427;49.654;6.596;2022-12-29T07:13:29;98800.22;;;11.46;50.40
74881;BME280;63427;49.654;6.596;2022-12-29T07:15:55;98811.64;;;11.26;50.24
74881;BME280;63427;49.654;6.596;2022-12-29T07:18:20;98821.91;;;10.73;52.89
74881;BME280;63427;49.654;6.596;2022-12-29T07:20:46;98823.07;;;10.19;55.23
74881;BME280;63427;49.654;6.596;2022-12-29T07:23:11;98831.45;;;10.44;54.13
74881;BME280;63427;49.654;6.596;2022-12-29T07:25:37;98838.87;;;11.11;53.08
74881;BME280;63427;49.654;6.596;2022-12-29T07:28:03;98832.69;;;10.62;54.11
74881;BME280;63427;49.654;6.596;2022-12-29T07:30:28;98829.89;;;10.83;53.55
74881;BME280;63427;49.654;6.596;2022-12-29T07:32:54;98840.32;;;11.35;52.22
74881;BME280;63427;49.654;6.596;2022-12-29T07:35:19;98850.91;;;11.41;51.29
74881;BME280;63427;49.654;6.596;2022-12-29T07:37:45;98851.37;;;11.54;51.30
74881;BME280;63427;49.654;6.596;2022-12-29T07:40:11;98840.72;;;11.19;51.54
74881;BME280;63427;49.654;6.596;2022-12-29T07:42:36;98846.56;;;10.88;52.78
74881;BME280;63427;49.654;6.596;2022-12-29T07:45:02;98851.79;;;10.96;52.23
74881;BME280;63427;49.654;6.596;2022-12-29T07:47:27;98847.38;;;10.64;53.50
74881;BME280;63427;49.654;6.596;2022-12-29T07:49:53;98851.71;;;11.16;51.86
74881;BME280;63427;49.654;6.596;2022-12-29T07:52:18;98851.08;;;10.81;52.12
74881;BME280;63427;49.654;6.596;2022-12-29T07:54:44;98859.33;;;10.22;54.40
74881;BME280;63427;49.654;6.596;2022-12-29T07:57:09;98854.70;;;10.64;52.51
74881;BME280;63427;49.654;6.596;2022-12-29T07:59:35;98865.93;;;10.77;52.03
74881;BME280;63427;49.654;6.596;2022-12-29T08:02:00;98869.46;;;11.55;51.18
74881;BME280;63427;49.654;6.596;2022-12-29T08:04:26;98864.74;;;11.19;50.27
74881;BME280;63427;49.654;6.596;2022-12-29T08:06:51;98878.12;;;10.67;51.41
74881;BME280;63427;49.654;6.596;2022-12-29T08:09:17;98868.74;;;10.99;51.24
74881;BME280;63427;49.654;6.596;2022-12-29T08:11:42;98878.95;;;11.09;50.53
74881;BME280;63427;49.654;6.596;2022-12-29T08:14:08;98882.78;;;11.68;49.97
74881;BME280;63427;49.654;6.596;2022-12-29T08:16:33;98887.96;;;11.59;49.87
74881;BME280;63427;49.654;6.596;2022-12-29T08:18:59;98898.91;;;11.45;49.80
74881;BME280;63427;49.654;6.596;2022-12-29T08:21:24;98903.30;;;11.04;50.66
74881;BME280;63427;49.654;6.596;2022-12-29T08:23:50;98906.13;;;11.69;50.13
74881;BME280;63427;49.654;6.596;2022-12-29T08:26:15;98916.77;;;11.36;49.92
74881;BME280;63427;49.654;6.596;2022-12-29T08:28:41;98908.99;;;11.05;50.29
74881;BME280;63427;49.654;6.596;2022-12-29T08:31:06;98922.50;;;11.24;50.00
74881;BME280;63427;49.654;6.596;2022-12-29T08:33:32;98922.34;;;11.55;49.36
74881;BME280;63427;49.654;6.596;2022-12-29T08:35:59;98930.74;;;11.45;49.58
74881;BME280;63427;49.654;6.596;2022-12-29T08:38:23;98928.57;;;10.83;50.96
74881;BME280;63427;49.654;6.596;2022-12-29T08:40:48;98930.44;;;10.37;51.87
74881;BME280;63427;49.654;6.596;2022-12-29T08:43:13;98938.65;;;10.92;50.72
74881;BME280;63427;49.654;6.596;2022-12-29T08:45:39;98938.17;;;10.87;49.88
74881;BME280;63427;49.654;6.596;2022-12-29T08:48:05;98933.83;;;11.23;49.42
74881;BME280;63427;49.654;6.596;2022-12-29T08:50:30;98916.43;;;11.05;48.86
74881;BME280;63427;49.654;6.596;2022-12-29T08:52:56;98933.64;;;11.77;48.20
74881;BME280;63427;49.654;6.596;2022-12-29T08:55:21;98942.17;;;11.71;47.60
74881;BME280;63427;49.654;6.596;2022-12-29T08:57:47;98948.28;;;11.82;46.77
74881;BME280;63427;49.654;6.596;2022-12-29T09:00:13;98946.41;;;11.55;46.30
74881;BME280;63427;49.654;6.596;2022-12-29T09:02:38;98952.46;;;12.00;45.92
74881;BME280;63427;49.654;6.596;2022-12-29T09:05:05;98959.42;;;11.54;46.51
74881;BME280;63427;49.654;6.596;2022-12-29T09:07:29;98962.13;;;11.48;46.05
74881;BME280;63427;49.654;6.596;2022-12-29T09:09:54;98971.11;;;11.84;45.64
74881;BME280;63427;49.654;6.596;2022-12-29T09:12:20;98962.05;;;11.47;46.56
74881;BME280;63427;49.654;6.596;2022-12-29T09:14:46;98973.12;;;11.62;46.13
74881;BME280;63427;49.654;6.596;2022-12-29T09:17:11;98978.43;;;11.68;45.95
74881;BME280;63427;49.654;6.596;2022-12-29T09:19:36;98972.66;;;12.02;45.83
74881;BME280;63427;49.654;6.596;2022-12-29T09:22:02;98976.53;;;11.17;46.77
74881;BME280;63427;49.654;6.596;2022-12-29T09:24:27;98976.30;;;11.67;46.09
74881;BME280;63427;49.654;6.596;2022-12-29T09:26:53;98974.58;;;11.39;46.39
74881;BME280;63427;49.654;6.596;2022-12-29T09:29:18;98978.27;;;11.58;46.58
74881;BME280;63427;49.654;6.596;2022-12-29T09:31:44;98975.95;;;11.93;45.47
74881;BME280;63427;49.654;6.596;2022-12-29T09:34:09;98982.16;;;11.85;45.66
74881;BME280;63427;49.654;6.596;2022-12-29T09:36:35;98983.89;;;11.15;47.22
74881;BME280;63427;49.654;6.596;2022-12-29T09:39:00;98987.61;;;11.22;47.35
74881;BME280;63427;49.654;6.596;2022-12-29T09:41:29;98988.35;;;12.16;45.57
74881;BME280;63427;49.654;6.596;2022-12-29T09:44:03;98997.37;;;12.11;45.18
74881;BME280;63427;49.654;6.596;2022-12-29T09:46:23;99001.73;;;11.93;44.90
74881;BME280;63427;49.654;6.596;2022-12-29T09:48:45;99002.43;;;11.77;45.66
74881;BME280;63427;49.654;6.596;2022-12-29T09:51:11;99002.90;;;11.49;45.48
74881;BME280;63427;49.654;6.596;2022-12-29T09:53:36;99005.22;;;12.02;45.14
74881;BME280;63427;49.654;6.596;2022-12-29T09:56:01;99000.36;;;11.82;45.12
74881;BME280;63427;49.654;6.596;2022-12-29T09:58:29;99009.28;;;12.36;44.53
74881;BME280;63427;49.654;6.596;2022-12-29T10:00:53;99008.23;;;12.38;44.67
74881;BME280;63427;49.654;6.596;2022-12-29T10:03:17;99014.80;;;11.97;44.88
74881;BME280;63427;49.654;6.596;2022-12-29T10:05:47;99017.71;;;12.40;44.18
74881;BME280;63427;49.654;6.596;2022-12-29T10:08:19;99017.14;;;12.40;44.65
74881;BME280;63427;49.654;6.596;2022-12-29T10:10:38;99016.99;;;12.25;44.65
74881;BME280;63427;49.654;6.596;2022-12-29T10:13:06;99025.14;;;12.35;44.61
74881;BME280;63427;49.654;6.596;2022-12-29T10:15:33;99028.55;;;12.45;44.74
74881;BME280;63427;49.654;6.596;2022-12-29T10:17:55;99024.31;;;12.70;44.04
74881;BME280;63427;49.654;6.596;2022-12-29T10:20:24;99036.65;;;12.50;44.70
74881;BME280;63427;49.654;6.596;2022-12-29T10:22:52;99038.21;;;12.77;43.87
74881;BME280;63427;49.654;6.596;2022-12-29T10:25:12;99036.63;;;12.30;44.07
74881;BME280;63427;49.654;6.596;2022-12-29T10:27:31;99037.30;;;12.50;44.42
74881;BME280;63427;49.654;6.596;2022-12-29T10:29:56;99035.01;;;12.49;44.10
74881;BME280;63427;49.654;6.596;2022-12-29T10:32:29;99034.07;;;11.98;45.26
74881;BME280;63427;49.654;6.596;2022-12-29T10:34:51;99033.15;;;12.21;44.23
74881;BME280;63427;49.654;6.596;2022-12-29T10:37:18;99038.81;;;12.64;43.67
74881;BME280;63427;49.654;6.596;2022-12-29T10:39:42;99033.80;;;12.15;44.10
74881;BME280;63427;49.654;6.596;2022-12-29T10:42:09;99025.74;;;13.00;42.97
74881;BME280;63427;49.654;6.596;2022-12-29T10:44:31;99026.96;;;12.50;43.44
74881;BME280;63427;49.654;6.596;2022-12-29T10:46:57;99031.88;;;12.15;43.91
74881;BME280;63427;49.654;6.596;2022-12-29T10:49:19;99021.70;;;11.91;45.49
74881;BME280;63427;49.654;6.596;2022-12-29T10:52:16;99024.19;;;12.35;44.08
74881;BME280;63427;49.654;6.596;2022-12-29T10:54:15;99023.66;;;12.82;43.53
74881;BME280;63427;49.654;6.596;2022-12-29T10:56:40;99015.26;;;12.92;43.23
74881;BME280;63427;49.654;6.596;2022-12-29T10:59:10;99023.19;;;13.31;42.86
74881;BME280;63427;49.654;6.596;2022-12-29T11:01:34;99024.50;;;13.27;42.88
74881;BME280;63427;49.654;6.596;2022-12-29T11:04:02;99022.41;;;12.72;42.69
74881;BME280;63427;49.654;6.596;2022-12-29T11:06:22;99021.60;;;12.93;43.19
74881;BME280;63427;49.654;6.596;2022-12-29T11:08:49;99018.75;;;12.44;43.46
74881;BME280;63427;49.654;6.596;2022-12-29T11:11:10;99021.14;;;13.18;42.77
74881;BME280;63427;49.654;6.596;2022-12-29T11:13:36;99013.08;;;13.02;43.12
74881;BME280;63427;49.654;6.596;2022-12-29T11:15:59;99016.36;;;12.90;43.25
74881;BME280;63427;49.654;6.596;2022-12-29T11:18:26;99019.74;;;13.01;43.75
74881;BME280;63427;49.654;6.596;2022-12-29T11:20:52;99016.26;;;13.14;42.80
74881;BME280;63427;49.654;6.596;2022-12-29T11:23:23;99023.74;;;13.04;42.97
74881;BME280;63427;49.654;6.596;2022-12-29T11:25:41;99014.09;;;13.00;43.06
74881;BME280;63427;49.654;6.596;2022-12-29T11:28:15;99014.44;;;12.56;43.19
74881;BME280;63427;49.654;6.596;2022-12-29T11:30:32;99014.25;;;13.02;42.87
74881;BME280;63427;49.654;6.596;2022-12-29T11:32:58;99017.97;;;12.91;42.25
74881;BME280;63427;49.654;6.596;2022-12-29T11:35:30;99022.09;;;12.44;43.28
74881;BME280;63427;49.654;6.596;2022-12-29T11:37:54;99022.31;;;12.57;42.74
74881;BME280;63427;49.654;6.596;2022-12-29T11:40:17;99020.66;;;12.55;43.28
74881;BME280;63427;49.654;6.596;2022-12-29T11:42:41;99021.62;;;12.71;43.88
74881;BME280;63427;49.654;6.596;2022-12-29T11:45:13;99029.83;;;12.68;42.66
74881;BME280;63427;49.654;6.596;2022-12-29T11:47:31;99017.47;;;13.51;41.63
74881;BME280;63427;49.654;6.596;2022-12-29T11:49:59;99013.23;;;12.72;42.56
74881;BME280;63427;49.654;6.596;2022-12-29T11:52:23;99015.40;;;12.78;42.76
74881;BME280;63427;49.654;6.596;2022-12-29T11:54:47;99009.91;;;12.54;42.59
74881;BME280;63427;49.654;6.596;2022-12-29T11:57:15;99006.64;;;12.65;42.59
74881;BME280;63427;49.654;6.596;2022-12-29T11:59:41;99007.67;;;13.43;41.42
74881;BME280;63427;49.654;6.596;2022-12-29T12:02:13;99004.88;;;13.17;40.98
74881;BME280;63427;49.654;6.596;2022-12-29T12:04:32;98999.67;;;13.11;41.09
74881;BME280;63427;49.654;6.596;2022-12-29T12:07:00;98995.35;;;13.11;40.73
74881;BME280;63427;49.654;6.596;2022-12-29T12:09:25;99002.87;;;12.48;41.21
74881;BME280;63427;49.654;6.596;2022-12-29T12:11:46;99000.04;;;12.91;40.83
74881;BME280;63427;49.654;6.596;2022-12-29T12:14:15;99013.22;;;13.39;39.76
74881;BME280;63427;49.654;6.596;2022-12-29T12:16:40;99001.28;;;13.33;39.31
74881;BME280;63427;49.654;6.596;2022-12-29T12:19:04;99001.98;;;13.67;39.31
74881;BME280;63427;49.654;6.596;2022-12-29T12:21:31;99006.90;;;13.68;38.32
74881;BME280;63427;49.654;6.596;2022-12-29T12:24:00;99002.64;;;14.20;38.08
74881;BME280;63427;49.654;6.596;2022-12-29T12:26:20;99002.25;;;13.52;38.28
74881;BME280;63427;49.654;6.596;2022-12-29T12:28:49;99006.98;;;13.98;37.67
74881;BME280;63427;49.654;6.596;2022-12-29T12:31:18;99003.00;;;13.56;38.19
74881;BME280;63427;49.654;6.596;2022-12-29T12:33:37;99004.90;;;13.95;37.30
74881;BME280;63427;49.654;6.596;2022-12-29T12:36:15;99000.15;;;13.97;36.91
74881;BME280;63427;49.654;6.596;2022-12-29T12:38:32;99008.10;;;12.91;38.52
74881;BME280;63427;49.654;6.596;2022-12-29T12:40:59;99011.36;;;13.44;37.54
74881;BME280;63427;49.654;6.596;2022-12-29T12:43:30;99013.23;;;13.97;37.48
74881;BME280;63427;49.654;6.596;2022-12-29T12:45:50;99014.55;;;14.18;36.71
74881;BME280;63427;49.654;6.596;2022-12-29T12:48:18;99013.68;;;14.61;36.50
74881;BME280;63427;49.654;6.596;2022-12-29T12:50:42;99013.25;;;14.45;35.48
74881;BME280;63427;49.654;6.596;2022-12-29T12:53:12;99015.14;;;13.61;36.38
74881;BME280;63427;49.654;6.596;2022-12-29T12:55:35;99024.99;;;13.98;36.35